sensor_id;sensor_type;location;lat;lon;timestamp;temperature;humidity
70820;DHT22;58439;51.046;13.692;2022-07-04T00:01:15;22.00;48.80
70820;DHT22;58439;51.046;13.692;2022-07-04T00:03:42;22.00;48.40
70820;DHT22;58439;51.046;13.692;2022-07-04T00:06:09;22.00;48.40
70820;DHT22;58439;51.046;13.692;2022-07-04T00:08:37;22.00;48.40
70820;DHT22;58439;51.046;13.692;2022-07-04T00:11:04;21.90;48.40
70820;DHT22;58439;51.046;13.692;2022-07-04T00:13:31;21.90;48.90
70820;DHT22;58439;51.046;13.692;2022-07-04T00:15:59;21.80;49.10
70820;DHT22;58439;51.046;13.692;2022-07-04T00:18:26;21.80;49.50
70820;DHT22;58439;51.046;13.692;2022-07-04T00:20:54;21.80;49.50
70820;DHT22;58439;51.046;13.692;2022-07-04T00:23:21;21.70;49.40
70820;DHT22;58439;51.046;13.692;2022-07-04T00:25:49;21.70;50.90
70820;DHT22;58439;51.046;13.692;2022-07-04T00:28:16;21.60;50.40
70820;DHT22;58439;51.046;13.692;2022-07-04T00:30:47;21.50;50.80
70820;DHT22;58439;51.046;13.692;2022-07-04T00:33:19;21.40;50.80
70820;DHT22;58439;51.046;13.692;2022-07-04T00:39:07;21.30;51.90
70820;DHT22;58439;51.046;13.692;2022-07-04T00:41:38;21.20;51.80
70820;DHT22;58439;51.046;13.692;2022-07-04T00:44:06;21.20;51.90
70820;DHT22;58439;51.046;13.692;2022-07-04T00:46:40;21.10;52.70
70820;DHT22;58439;51.046;13.692;2022-07-04T00:49:14;21.10;52.70
70820;DHT22;58439;51.046;13.692;2022-07-04T00:51:44;21.00;52.40
70820;DHT22;58439;51.046;13.692;2022-07-04T00:54:15;20.90;52.30
70820;DHT22;58439;51.046;13.692;2022-07-04T00:56:45;20.90;52.10
70820;DHT22;58439;51.046;13.692;2022-07-04T00:59:13;20.80;51.30
70820;DHT22;58439;51.046;13.692;2022-07-04T01:01:44;20.80;51.00
70820;DHT22;58439;51.046;13.692;2022-07-04T01:04:22;20.80;50.30
70820;DHT22;58439;51.046;13.692;2022-07-04T01:06:58;20.80;49.80
70820;DHT22;58439;51.046;13.692;2022-07-04T01:09:28;20.80;49.20
70820;DHT22;58439;51.046;13.692;2022-07-04T01:11:59;20.90;48.70
70820;DHT22;58439;51.046;13.692;2022-07-04T01:14:29;20.90;48.40
70820;DHT22;58439;51.046;13.692;2022-07-04T01:17:12;20.90;47.90
70820;DHT22;58439;51.046;13.692;2022-07-04T01:19:50;20.90;47.60
70820;DHT22;58439;51.046;13.692;2022-07-04T01:22:22;20.90;47.60
70820;DHT22;58439;51.046;13.692;2022-07-04T01:25:00;20.80;47.40
70820;DHT22;58439;51.046;13.692;2022-07-04T01:27:33;20.80;47.60
70820;DHT22;58439;51.046;13.692;2022-07-04T01:30:08;20.80;47.50
70820;DHT22;58439;51.046;13.692;2022-07-04T01:32:41;20.60;47.50
70820;DHT22;58439;51.046;13.692;2022-07-04T01:35:15;20.60;47.50
70820;DHT22;58439;51.046;13.692;2022-07-04T01:37:46;20.60;47.50
70820;DHT22;58439;51.046;13.692;2022-07-04T01:40:18;20.50;47.70
70820;DHT22;58439;51.046;13.692;2022-07-04T01:42:51;20.50;47.90
70820;DHT22;58439;51.046;13.692;2022-07-04T01:45:22;20.40;48.10
70820;DHT22;58439;51.046;13.692;2022-07-04T01:48:08;20.40;48.30
70820;DHT22;58439;51.046;13.692;2022-07-04T01:50:45;20.30;48.40
70820;DHT22;58439;51.046;13.692;2022-07-04T01:53:16;20.30;48.50
70820;DHT22;58439;51.046;13.692;2022-07-04T01:55:49;20.30;48.70
70820;DHT22;58439;51.046;13.692;2022-07-04T01:58:16;20.30;48.70
70820;DHT22;58439;51.046;13.692;2022-07-04T02:00:43;20.20;48.70
70820;DHT22;58439;51.046;13.692;2022-07-04T02:03:29;20.30;48.40
70820;DHT22;58439;51.046;13.692;2022-07-04T02:05:56;20.30;48.40
70820;DHT22;58439;51.046;13.692;2022-07-04T02:08:23;20.30;48.50
70820;DHT22;58439;51.046;13.692;2022-07-04T02:11:10;20.20;48.50
70820;DHT22;58439;51.046;13.692;2022-07-04T02:13:37;20.10;48.70
70820;DHT22;58439;51.046;13.692;2022-07-04T02:16:06;20.10;48.90
70820;DHT22;58439;51.046;13.692;2022-07-04T02:18:34;20.10;49.10
70820;DHT22;58439;51.046;13.692;2022-07-04T02:21:00;20.00;49.20
70820;DHT22;58439;51.046;13.692;2022-07-04T02:23:28;20.00;49.30
70820;DHT22;58439;51.046;13.692;2022-07-04T02:25:55;20.00;49.50
70820;DHT22;58439;51.046;13.692;2022-07-04T02:28:22;19.90;49.60
70820;DHT22;58439;51.046;13.692;2022-07-04T02:30:49;19.80;49.90
70820;DHT22;58439;51.046;13.692;2022-07-04T02:33:18;19.80;50.10
70820;DHT22;58439;51.046;13.692;2022-07-04T02:35:45;19.70;50.30
70820;DHT22;58439;51.046;13.692;2022-07-04T02:38:12;19.70;50.60
70820;DHT22;58439;51.046;13.692;2022-07-04T02:40:40;19.60;50.70
70820;DHT22;58439;51.046;13.692;2022-07-04T02:43:07;19.60;51.00
70820;DHT22;58439;51.046;13.692;2022-07-04T02:45:34;19.60;51.20
70820;DHT22;58439;51.046;13.692;2022-07-04T02:51:10;19.50;51.60
70820;DHT22;58439;51.046;13.692;2022-07-04T02:53:51;19.50;51.60
70820;DHT22;58439;51.046;13.692;2022-07-04T02:56:18;19.40;51.80
70820;DHT22;58439;51.046;13.692;2022-07-04T02:58:46;19.40;52.20
70820;DHT22;58439;51.046;13.692;2022-07-04T03:01:13;19.40;52.30
70820;DHT22;58439;51.046;13.692;2022-07-04T03:03:41;19.40;52.50
70820;DHT22;58439;51.046;13.692;2022-07-04T03:06:09;19.40;52.60
70820;DHT22;58439;51.046;13.692;2022-07-04T03:08:36;19.30;52.70
70820;DHT22;58439;51.046;13.692;2022-07-04T03:11:06;19.30;52.80
70820;DHT22;58439;51.046;13.692;2022-07-04T03:13:33;19.30;52.80
70820;DHT22;58439;51.046;13.692;2022-07-04T03:16:00;19.20;53.10
70820;DHT22;58439;51.046;13.692;2022-07-04T03:18:27;19.20;53.30
70820;DHT22;58439;51.046;13.692;2022-07-04T03:20:54;19.20;53.40
70820;DHT22;58439;51.046;13.692;2022-07-04T03:23:21;19.20;53.50
70820;DHT22;58439;51.046;13.692;2022-07-04T03:25:49;19.20;53.60
70820;DHT22;58439;51.046;13.692;2022-07-04T03:28:16;19.20;53.70
70820;DHT22;58439;51.046;13.692;2022-07-04T03:30:43;19.20;53.80
70820;DHT22;58439;51.046;13.692;2022-07-04T03:33:10;19.20;53.70
70820;DHT22;58439;51.046;13.692;2022-07-04T03:35:52;19.30;53.60
70820;DHT22;58439;51.046;13.692;2022-07-04T03:38:24;19.30;53.60
70820;DHT22;58439;51.046;13.692;2022-07-04T03:41:07;19.40;53.60
70820;DHT22;58439;51.046;13.692;2022-07-04T03:43:39;19.50;53.50
70820;DHT22;58439;51.046;13.692;2022-07-04T03:46:15;19.50;53.20
70820;DHT22;58439;51.046;13.692;2022-07-04T03:48:49;19.50;53.10
70820;DHT22;58439;51.046;13.692;2022-07-04T03:51:17;19.50;53.40
70820;DHT22;58439;51.046;13.692;2022-07-04T03:53:44;19.50;53.70
70820;DHT22;58439;51.046;13.692;2022-07-04T03:56:11;19.40;54.10
70820;DHT22;58439;51.046;13.692;2022-07-04T03:58:39;19.40;54.10
70820;DHT22;58439;51.046;13.692;2022-07-04T04:01:09;19.40;54.30
70820;DHT22;58439;51.046;13.692;2022-07-04T04:03:36;19.40;55.10
70820;DHT22;58439;51.046;13.692;2022-07-04T04:06:21;19.40;54.80
70820;DHT22;58439;51.046;13.692;2022-07-04T04:08:49;19.40;55.00
70820;DHT22;58439;51.046;13.692;2022-07-04T04:11:16;19.40;55.20
70820;DHT22;58439;51.046;13.692;2022-07-04T04:13:43;19.50;55.40
70820;DHT22;58439;51.046;13.692;2022-07-04T04:16:10;19.50;55.30
70820;DHT22;58439;51.046;13.692;2022-07-04T04:18:38;19.50;55.70
70820;DHT22;58439;51.046;13.692;2022-07-04T04:21:05;19.50;55.90
70820;DHT22;58439;51.046;13.692;2022-07-04T04:23:32;19.50;56.00
70820;DHT22;58439;51.046;13.692;2022-07-04T04:25:59;19.50;56.10
70820;DHT22;58439;51.046;13.692;2022-07-04T04:28:34;19.50;56.30
70820;DHT22;58439;51.046;13.692;2022-07-04T04:31:27;19.50;56.40
70820;DHT22;58439;51.046;13.692;2022-07-04T04:33:58;19.50;56.70
70820;DHT22;58439;51.046;13.692;2022-07-04T04:36:33;19.50;56.70
70820;DHT22;58439;51.046;13.692;2022-07-04T04:39:04;19.60;56.90
70820;DHT22;58439;51.046;13.692;2022-07-04T04:41:33;19.50;56.80
70820;DHT22;58439;51.046;13.692;2022-07-04T04:44:08;19.60;57.10
70820;DHT22;58439;51.046;13.692;2022-07-04T04:46:46;19.60;57.20
70820;DHT22;58439;51.046;13.692;2022-07-04T04:49:19;19.60;57.40
70820;DHT22;58439;51.046;13.692;2022-07-04T04:51:48;19.70;57.40
70820;DHT22;58439;51.046;13.692;2022-07-04T04:54:20;19.70;57.60
70820;DHT22;58439;51.046;13.692;2022-07-04T04:57:05;19.70;58.00
70820;DHT22;58439;51.046;13.692;2022-07-04T04:59:47;19.70;57.90
70820;DHT22;58439;51.046;13.692;2022-07-04T05:02:27;19.70;58.00
70820;DHT22;58439;51.046;13.692;2022-07-04T05:04:56;19.70;58.70
70820;DHT22;58439;51.046;13.692;2022-07-04T05:07:23;19.60;59.20
70820;DHT22;58439;51.046;13.692;2022-07-04T05:09:50;19.50;60.10
70820;DHT22;58439;51.046;13.692;2022-07-04T05:12:17;19.40;60.50
70820;DHT22;58439;51.046;13.692;2022-07-04T05:14:44;19.40;60.70
70820;DHT22;58439;51.046;13.692;2022-07-04T05:17:12;19.30;61.20
70820;DHT22;58439;51.046;13.692;2022-07-04T05:19:39;19.20;61.40
70820;DHT22;58439;51.046;13.692;2022-07-04T05:22:09;19.20;61.70
70820;DHT22;58439;51.046;13.692;2022-07-04T05:24:47;19.30;61.90
70820;DHT22;58439;51.046;13.692;2022-07-04T05:28:26;19.50;61.70
70820;DHT22;58439;51.046;13.692;2022-07-04T05:31:54;19.60;61.50
70820;DHT22;58439;51.046;13.692;2022-07-04T05:34:30;19.80;61.00
70820;DHT22;58439;51.046;13.692;2022-07-04T05:37:03;19.90;60.60
70820;DHT22;58439;51.046;13.692;2022-07-04T05:39:30;19.90;60.30
70820;DHT22;58439;51.046;13.692;2022-07-04T05:41:58;20.00;60.20
70820;DHT22;58439;51.046;13.692;2022-07-04T05:44:25;20.00;60.20
70820;DHT22;58439;51.046;13.692;2022-07-04T05:46:52;20.10;60.10
70820;DHT22;58439;51.046;13.692;2022-07-04T05:49:19;20.10;60.10
70820;DHT22;58439;51.046;13.692;2022-07-04T05:51:46;20.20;60.00
70820;DHT22;58439;51.046;13.692;2022-07-04T05:54:14;20.30;59.70
70820;DHT22;58439;51.046;13.692;2022-07-04T05:56:41;20.30;59.50
70820;DHT22;58439;51.046;13.692;2022-07-04T05:59:09;20.30;59.40
70820;DHT22;58439;51.046;13.692;2022-07-04T06:01:37;20.30;59.10
70820;DHT22;58439;51.046;13.692;2022-07-04T06:04:04;20.40;58.90
70820;DHT22;58439;51.046;13.692;2022-07-04T06:06:33;20.40;59.90
70820;DHT22;58439;51.046;13.692;2022-07-04T06:09:01;20.60;58.50
70820;DHT22;58439;51.046;13.692;2022-07-04T06:11:30;20.60;58.20
70820;DHT22;58439;51.046;13.692;2022-07-04T06:13:57;20.70;57.90
70820;DHT22;58439;51.046;13.692;2022-07-04T06:16:24;20.90;57.60
70820;DHT22;58439;51.046;13.692;2022-07-04T06:18:51;20.90;57.30
70820;DHT22;58439;51.046;13.692;2022-07-04T06:21:18;21.00;57.10
70820;DHT22;58439;51.046;13.692;2022-07-04T06:23:51;21.10;56.60
70820;DHT22;58439;51.046;13.692;2022-07-04T06:26:39;21.20;56.30
70820;DHT22;58439;51.046;13.692;2022-07-04T06:30:03;21.30;55.80
70820;DHT22;58439;51.046;13.692;2022-07-04T06:33:28;21.40;55.30
70820;DHT22;58439;51.046;13.692;2022-07-04T06:36:09;21.50;54.90
70820;DHT22;58439;51.046;13.692;2022-07-04T06:38:47;21.60;54.00
70820;DHT22;58439;51.046;13.692;2022-07-04T06:41:25;21.60;53.80
70820;DHT22;58439;51.046;13.692;2022-07-04T06:44:05;21.80;53.80
70820;DHT22;58439;51.046;13.692;2022-07-04T06:46:55;21.90;53.00
70820;DHT22;58439;51.046;13.692;2022-07-04T06:49:34;22.10;51.60
70820;DHT22;58439;51.046;13.692;2022-07-04T06:52:16;22.10;51.40
70820;DHT22;58439;51.046;13.692;2022-07-04T06:55:06;22.10;51.50
70820;DHT22;58439;51.046;13.692;2022-07-04T06:58:38;22.20;51.30
70820;DHT22;58439;51.046;13.692;2022-07-04T07:02:06;22.30;51.10
70820;DHT22;58439;51.046;13.692;2022-07-04T07:04:33;22.40;50.50
70820;DHT22;58439;51.046;13.692;2022-07-04T07:07:00;22.50;50.30
70820;DHT22;58439;51.046;13.692;2022-07-04T07:09:27;22.60;49.60
70820;DHT22;58439;51.046;13.692;2022-07-04T07:11:57;22.70;49.10
70820;DHT22;58439;51.046;13.692;2022-07-04T07:14:29;22.80;48.50
70820;DHT22;58439;51.046;13.692;2022-07-04T07:16:56;22.80;47.70
70820;DHT22;58439;51.046;13.692;2022-07-04T07:19:24;22.80;46.70
70820;DHT22;58439;51.046;13.692;2022-07-04T07:21:59;22.80;47.20
70820;DHT22;58439;51.046;13.692;2022-07-04T07:24:36;22.80;46.40
70820;DHT22;58439;51.046;13.692;2022-07-04T07:27:11;22.80;46.80
70820;DHT22;58439;51.046;13.692;2022-07-04T07:30:04;22.90;47.30
70820;DHT22;58439;51.046;13.692;2022-07-04T07:32:35;23.00;45.80
70820;DHT22;58439;51.046;13.692;2022-07-04T07:35:19;23.10;44.10
70820;DHT22;58439;51.046;13.692;2022-07-04T07:38:22;23.10;44.30
70820;DHT22;58439;51.046;13.692;2022-07-04T07:42:05;23.20;44.50
70820;DHT22;58439;51.046;13.692;2022-07-04T07:44:45;23.40;43.40
70820;DHT22;58439;51.046;13.692;2022-07-04T07:47:39;23.40;43.40
70820;DHT22;58439;51.046;13.692;2022-07-04T07:50:31;23.40;42.40
70820;DHT22;58439;51.046;13.692;2022-07-04T07:53:29;23.30;41.80
70820;DHT22;58439;51.046;13.692;2022-07-04T07:56:36;23.30;41.30
70820;DHT22;58439;51.046;13.692;2022-07-04T07:59:22;23.30;41.20
70820;DHT22;58439;51.046;13.692;2022-07-04T08:01:55;23.40;41.00
70820;DHT22;58439;51.046;13.692;2022-07-04T08:04:56;23.50;40.10
70820;DHT22;58439;51.046;13.692;2022-07-04T08:07:32;23.50;41.20
70820;DHT22;58439;51.046;13.692;2022-07-04T08:10:09;23.50;40.50
70820;DHT22;58439;51.046;13.692;2022-07-04T08:12:36;23.60;41.20
70820;DHT22;58439;51.046;13.692;2022-07-04T08:15:04;23.60;42.20
70820;DHT22;58439;51.046;13.692;2022-07-04T08:17:34;23.70;42.30
70820;DHT22;58439;51.046;13.692;2022-07-04T08:20:05;23.70;41.90
70820;DHT22;58439;51.046;13.692;2022-07-04T08:22:32;23.80;41.10
70820;DHT22;58439;51.046;13.692;2022-07-04T08:25:00;23.80;40.60
70820;DHT22;58439;51.046;13.692;2022-07-04T08:27:53;23.90;41.00
70820;DHT22;58439;51.046;13.692;2022-07-04T08:30:20;24.00;40.20
70820;DHT22;58439;51.046;13.692;2022-07-04T08:33:01;24.10;40.30
70820;DHT22;58439;51.046;13.692;2022-07-04T08:37:05;24.10;40.10
70820;DHT22;58439;51.046;13.692;2022-07-04T08:40:05;24.20;39.40
70820;DHT22;58439;51.046;13.692;2022-07-04T08:47:35;24.50;39.40
70820;DHT22;58439;51.046;13.692;2022-07-04T08:55:33;25.10;37.30
70820;DHT22;58439;51.046;13.692;2022-07-04T08:59:49;25.00;37.00
70820;DHT22;58439;51.046;13.692;2022-07-04T09:03:11;24.90;37.00
70820;DHT22;58439;51.046;13.692;2022-07-04T09:27:10;24.70;36.50
70820;DHT22;58439;51.046;13.692;2022-07-04T09:57:51;26.20;33.30
70820;DHT22;58439;51.046;13.692;2022-07-04T10:12:48;26.80;31.70
70820;DHT22;58439;51.046;13.692;2022-07-04T10:28:11;27.60;30.00
70820;DHT22;58439;51.046;13.692;2022-07-04T10:47:58;27.40;29.80
70820;DHT22;58439;51.046;13.692;2022-07-04T10:52:33;27.40;29.70
70820;DHT22;58439;51.046;13.692;2022-07-04T10:58:09;27.40;29.40
70820;DHT22;58439;51.046;13.692;2022-07-04T11:01:13;27.40;29.10
70820;DHT22;58439;51.046;13.692;2022-07-04T11:09:46;27.90;29.00
70820;DHT22;58439;51.046;13.692;2022-07-04T11:13:07;28.20;28.50
70820;DHT22;58439;51.046;13.692;2022-07-04T11:16:53;28.90;28.40
70820;DHT22;58439;51.046;13.692;2022-07-04T11:19:32;30.10;26.10
70820;DHT22;58439;51.046;13.692;2022-07-04T11:22:00;30.70;25.00
70820;DHT22;58439;51.046;13.692;2022-07-04T11:25:02;30.90;24.70
70820;DHT22;58439;51.046;13.692;2022-07-04T11:28:35;31.40;24.00
70820;DHT22;58439;51.046;13.692;2022-07-04T11:32:47;31.80;23.40
70820;DHT22;58439;51.046;13.692;2022-07-04T11:36:07;32.10;23.10
70820;DHT22;58439;51.046;13.692;2022-07-04T11:39:14;31.50;23.60
70820;DHT22;58439;51.046;13.692;2022-07-04T11:41:58;31.40;23.90
70820;DHT22;58439;51.046;13.692;2022-07-04T11:44:58;31.70;23.20
70820;DHT22;58439;51.046;13.692;2022-07-04T11:47:41;32.40;23.00
70820;DHT22;58439;51.046;13.692;2022-07-04T11:51:20;33.20;22.30
70820;DHT22;58439;51.046;13.692;2022-07-04T11:54:05;34.30;21.60
70820;DHT22;58439;51.046;13.692;2022-07-04T11:57:23;34.30;20.10
70820;DHT22;58439;51.046;13.692;2022-07-04T12:00:21;33.80;20.50
70820;DHT22;58439;51.046;13.692;2022-07-04T12:03:12;33.70;20.70
70820;DHT22;58439;51.046;13.692;2022-07-04T12:06:04;34.00;20.20
70820;DHT22;58439;51.046;13.692;2022-07-04T12:08:50;34.20;20.40
70820;DHT22;58439;51.046;13.692;2022-07-04T12:12:00;34.10;19.80
70820;DHT22;58439;51.046;13.692;2022-07-04T12:15:06;33.80;20.30
70820;DHT22;58439;51.046;13.692;2022-07-04T12:18:32;33.90;20.40
70820;DHT22;58439;51.046;13.692;2022-07-04T12:31:04;32.40;21.70
70820;DHT22;58439;51.046;13.692;2022-07-04T12:47:25;32.80;20.80
70820;DHT22;58439;51.046;13.692;2022-07-04T12:50:13;31.30;22.10
70820;DHT22;58439;51.046;13.692;2022-07-04T12:52:44;30.70;23.10
70820;DHT22;58439;51.046;13.692;2022-07-04T12:55:33;31.10;22.80
70820;DHT22;58439;51.046;13.692;2022-07-04T12:58:37;32.20;21.80
70820;DHT22;58439;51.046;13.692;2022-07-04T13:04:46;33.90;19.90
70820;DHT22;58439;51.046;13.692;2022-07-04T13:18:11;34.60;19.30
70820;DHT22;58439;51.046;13.692;2022-07-04T13:22:13;34.60;18.60
70820;DHT22;58439;51.046;13.692;2022-07-04T13:52:46;34.00;20.10
70820;DHT22;58439;51.046;13.692;2022-07-04T14:51:57;35.60;16.10
70820;DHT22;58439;51.046;13.692;2022-07-04T14:55:02;34.80;16.60
70820;DHT22;58439;51.046;13.692;2022-07-04T14:58:03;34.70;16.50
70820;DHT22;58439;51.046;13.692;2022-07-04T15:01:28;35.20;16.10
70820;DHT22;58439;51.046;13.692;2022-07-04T15:09:26;36.20;15.00
70820;DHT22;58439;51.046;13.692;2022-07-04T15:13:24;36.90;14.50
70820;DHT22;58439;51.046;13.692;2022-07-04T15:25:08;36.10;14.30
70820;DHT22;58439;51.046;13.692;2022-07-04T15:32:32;37.10;13.50
70820;DHT22;58439;51.046;13.692;2022-07-04T15:36:37;37.50;13.20
70820;DHT22;58439;51.046;13.692;2022-07-04T15:40:51;37.40;13.00
70820;DHT22;58439;51.046;13.692;2022-07-04T15:44:08;37.20;12.60
70820;DHT22;58439;51.046;13.692;2022-07-04T15:47:25;36.90;12.90
70820;DHT22;58439;51.046;13.692;2022-07-04T15:50:08;36.30;13.30
70820;DHT22;58439;51.046;13.692;2022-07-04T15:56:28;36.20;13.50
70820;DHT22;58439;51.046;13.692;2022-07-04T15:59:32;36.30;13.20
70820;DHT22;58439;51.046;13.692;2022-07-04T16:02:51;36.20;13.60
70820;DHT22;58439;51.046;13.692;2022-07-04T16:06:13;36.30;13.30
70820;DHT22;58439;51.046;13.692;2022-07-04T16:12:25;36.00;13.20
70820;DHT22;58439;51.046;13.692;2022-07-04T16:15:57;35.80;13.70
70820;DHT22;58439;51.046;13.692;2022-07-04T16:19:03;35.80;14.00
70820;DHT22;58439;51.046;13.692;2022-07-04T16:22:21;35.90;14.10
70820;DHT22;58439;51.046;13.692;2022-07-04T16:25:28;35.90;13.90
70820;DHT22;58439;51.046;13.692;2022-07-04T16:28:25;36.00;14.00
70820;DHT22;58439;51.046;13.692;2022-07-04T16:32:39;36.20;14.00
70820;DHT22;58439;51.046;13.692;2022-07-04T16:35:43;36.20;13.60
70820;DHT22;58439;51.046;13.692;2022-07-04T16:38:28;36.20;13.70
70820;DHT22;58439;51.046;13.692;2022-07-04T16:44:44;36.20;13.90
70820;DHT22;58439;51.046;13.692;2022-07-04T16:47:40;36.00;13.70
70820;DHT22;58439;51.046;13.692;2022-07-04T16:50:32;35.90;13.90
70820;DHT22;58439;51.046;13.692;2022-07-04T16:53:15;36.30;13.80
70820;DHT22;58439;51.046;13.692;2022-07-04T16:55:54;36.60;13.40
70820;DHT22;58439;51.046;13.692;2022-07-04T16:58:32;36.30;13.50
70820;DHT22;58439;51.046;13.692;2022-07-04T17:01:08;35.50;14.00
70820;DHT22;58439;51.046;13.692;2022-07-04T17:04:02;35.10;14.50
70820;DHT22;58439;51.046;13.692;2022-07-04T17:06:31;34.40;15.00
70820;DHT22;58439;51.046;13.692;2022-07-04T17:08:59;33.90;15.40
70820;DHT22;58439;51.046;13.692;2022-07-04T17:11:32;33.70;15.50
70820;DHT22;58439;51.046;13.692;2022-07-04T17:14:06;33.80;15.70
70820;DHT22;58439;51.046;13.692;2022-07-04T17:16:41;34.10;15.60
70820;DHT22;58439;51.046;13.692;2022-07-04T17:19:28;34.50;14.90
70820;DHT22;58439;51.046;13.692;2022-07-04T17:22:28;34.90;14.50
70820;DHT22;58439;51.046;13.692;2022-07-04T17:25:02;35.10;14.30
70820;DHT22;58439;51.046;13.692;2022-07-04T17:27:58;35.10;14.30
70820;DHT22;58439;51.046;13.692;2022-07-04T17:30:39;34.60;14.60
70820;DHT22;58439;51.046;13.692;2022-07-04T17:33:49;34.30;15.00
70820;DHT22;58439;51.046;13.692;2022-07-04T17:36:36;33.60;15.40
70820;DHT22;58439;51.046;13.692;2022-07-04T17:39:07;32.60;16.20
70820;DHT22;58439;51.046;13.692;2022-07-04T17:41:41;31.80;17.00
70820;DHT22;58439;51.046;13.692;2022-07-04T17:44:28;31.20;17.80
70820;DHT22;58439;51.046;13.692;2022-07-04T17:47:07;31.20;18.20
70820;DHT22;58439;51.046;13.692;2022-07-04T17:49:51;31.50;17.90
70820;DHT22;58439;51.046;13.692;2022-07-04T17:52:57;32.20;17.50
70820;DHT22;58439;51.046;13.692;2022-07-04T17:55:47;32.80;16.40
70820;DHT22;58439;51.046;13.692;2022-07-04T17:58:23;33.10;16.20
70820;DHT22;58439;51.046;13.692;2022-07-04T18:01:05;33.00;16.00
70820;DHT22;58439;51.046;13.692;2022-07-04T18:03:42;32.90;16.30
70820;DHT22;58439;51.046;13.692;2022-07-04T18:06:10;32.80;16.40
70820;DHT22;58439;51.046;13.692;2022-07-04T18:08:38;32.70;16.30
70820;DHT22;58439;51.046;13.692;2022-07-04T18:11:06;32.20;16.80
70820;DHT22;58439;51.046;13.692;2022-07-04T18:13:34;31.40;17.40
70820;DHT22;58439;51.046;13.692;2022-07-04T18:16:02;30.90;18.20
70820;DHT22;58439;51.046;13.692;2022-07-04T18:18:29;30.30;18.80
70820;DHT22;58439;51.046;13.692;2022-07-04T18:20:57;29.90;19.20
70820;DHT22;58439;51.046;13.692;2022-07-04T18:23:24;30.00;19.30
70820;DHT22;58439;51.046;13.692;2022-07-04T18:25:51;30.20;19.10
70820;DHT22;58439;51.046;13.692;2022-07-04T18:28:19;30.30;18.80
70820;DHT22;58439;51.046;13.692;2022-07-04T18:30:46;30.30;18.90
70820;DHT22;58439;51.046;13.692;2022-07-04T18:33:13;30.40;18.80
70820;DHT22;58439;51.046;13.692;2022-07-04T18:35:41;30.20;18.90
70820;DHT22;58439;51.046;13.692;2022-07-04T18:38:10;30.10;19.00
70820;DHT22;58439;51.046;13.692;2022-07-04T18:40:38;30.00;19.20
70820;DHT22;58439;51.046;13.692;2022-07-04T18:43:24;29.70;19.50
70820;DHT22;58439;51.046;13.692;2022-07-04T18:45:55;29.20;20.20
70820;DHT22;58439;51.046;13.692;2022-07-04T18:48:25;28.80;20.90
70820;DHT22;58439;51.046;13.692;2022-07-04T18:50:53;28.30;21.50
70820;DHT22;58439;51.046;13.692;2022-07-04T18:53:22;27.90;22.00
70820;DHT22;58439;51.046;13.692;2022-07-04T18:55:51;27.60;22.20
70820;DHT22;58439;51.046;13.692;2022-07-04T18:58:19;27.30;22.70
70820;DHT22;58439;51.046;13.692;2022-07-04T19:00:46;27.10;23.00
70820;DHT22;58439;51.046;13.692;2022-07-04T19:03:14;26.80;23.20
70820;DHT22;58439;51.046;13.692;2022-07-04T19:05:41;26.70;23.60
70820;DHT22;58439;51.046;13.692;2022-07-04T19:08:09;26.50;23.70
70820;DHT22;58439;51.046;13.692;2022-07-04T19:10:38;26.40;24.20
70820;DHT22;58439;51.046;13.692;2022-07-04T19:13:07;26.20;24.40
70820;DHT22;58439;51.046;13.692;2022-07-04T19:15:37;26.00;24.50
70820;DHT22;58439;51.046;13.692;2022-07-04T19:18:07;25.90;24.70
70820;DHT22;58439;51.046;13.692;2022-07-04T19:20:34;25.80;24.90
70820;DHT22;58439;51.046;13.692;2022-07-04T19:23:06;25.60;25.10
70820;DHT22;58439;51.046;13.692;2022-07-04T19:25:35;25.50;25.30
70820;DHT22;58439;51.046;13.692;2022-07-04T19:28:19;25.40;25.50
70820;DHT22;58439;51.046;13.692;2022-07-04T19:30:49;25.30;25.70
70820;DHT22;58439;51.046;13.692;2022-07-04T19:33:21;25.30;26.00
70820;DHT22;58439;51.046;13.692;2022-07-04T19:35:50;25.10;26.30
70820;DHT22;58439;51.046;13.692;2022-07-04T19:38:18;25.00;26.40
70820;DHT22;58439;51.046;13.692;2022-07-04T19:40:45;25.00;26.60
70820;DHT22;58439;51.046;13.692;2022-07-04T19:43:12;24.90;26.50
70820;DHT22;58439;51.046;13.692;2022-07-04T19:45:42;24.90;26.70
70820;DHT22;58439;51.046;13.692;2022-07-04T19:48:09;24.80;26.80
70820;DHT22;58439;51.046;13.692;2022-07-04T19:50:41;24.70;27.00
70820;DHT22;58439;51.046;13.692;2022-07-04T19:53:13;24.70;27.00
70820;DHT22;58439;51.046;13.692;2022-07-04T19:55:42;24.60;27.20
70820;DHT22;58439;51.046;13.692;2022-07-04T19:58:10;24.50;27.20
70820;DHT22;58439;51.046;13.692;2022-07-04T20:00:37;24.50;27.50
70820;DHT22;58439;51.046;13.692;2022-07-04T20:03:06;24.40;27.60
70820;DHT22;58439;51.046;13.692;2022-07-04T20:05:33;24.30;27.80
70820;DHT22;58439;51.046;13.692;2022-07-04T20:08:00;24.20;28.10
70820;DHT22;58439;51.046;13.692;2022-07-04T20:10:27;24.10;28.40
70820;DHT22;58439;51.046;13.692;2022-07-04T20:12:54;24.00;28.40
70820;DHT22;58439;51.046;13.692;2022-07-04T20:15:21;23.90;28.50
70820;DHT22;58439;51.046;13.692;2022-07-04T20:17:48;23.80;29.40
70820;DHT22;58439;51.046;13.692;2022-07-04T20:20:16;23.70;28.70
70820;DHT22;58439;51.046;13.692;2022-07-04T20:22:44;23.70;28.90
70820;DHT22;58439;51.046;13.692;2022-07-04T20:25:12;23.60;29.10
70820;DHT22;58439;51.046;13.692;2022-07-04T20:27:41;23.60;29.80
70820;DHT22;58439;51.046;13.692;2022-07-04T20:30:11;23.50;29.90
70820;DHT22;58439;51.046;13.692;2022-07-04T20:32:39;23.60;30.00
70820;DHT22;58439;51.046;13.692;2022-07-04T20:35:11;23.50;31.20
70820;DHT22;58439;51.046;13.692;2022-07-04T20:37:43;23.40;30.30
70820;DHT22;58439;51.046;13.692;2022-07-04T20:40:12;23.40;30.40
70820;DHT22;58439;51.046;13.692;2022-07-04T20:42:41;23.30;29.30
70820;DHT22;58439;51.046;13.692;2022-07-04T20:45:08;23.20;30.00
70820;DHT22;58439;51.046;13.692;2022-07-04T20:47:38;23.10;29.80
70820;DHT22;58439;51.046;13.692;2022-07-04T20:50:07;23.10;29.60
70820;DHT22;58439;51.046;13.692;2022-07-04T20:52:35;23.10;29.50
70820;DHT22;58439;51.046;13.692;2022-07-04T20:55:03;23.10;29.10
70820;DHT22;58439;51.046;13.692;2022-07-04T20:57:39;23.20;29.20
70820;DHT22;58439;51.046;13.692;2022-07-04T21:00:07;23.20;29.10
70820;DHT22;58439;51.046;13.692;2022-07-04T21:02:35;23.20;29.10
70820;DHT22;58439;51.046;13.692;2022-07-04T21:05:02;23.20;29.00